This is the latest recevied weather packets stored in our database for station/object DB0HOL-4. If no packets are shown the sender has not sent any weather packets the latest 10 day(s).
| Time | Temp. | Humidity | Pressure | Rain* | Wind** | Luminosity | Snow |
|---|---|---|---|---|---|---|---|
| 1777539398 | 8.89° C | 44% | 1030.4 hPa | 0 mm | - | 491 W/m² | - |
| 1777537597 | 7.78° C | 46% | 1030.4 hPa | 0 mm | - | 364 W/m² | - |
| 1777535797 | 7.22° C | 47% | 1030.4 hPa | 0 mm | - | 281 W/m² | - |
| 1777533997 | 7.22° C | 49% | 1030.4 hPa | 0 mm | - | 932 W/m² | - |
| 1777532197 | 6.11° C | 51% | 1030.4 hPa | 0 mm | - | 142 W/m² | - |
| 1777530397 | 5.56° C | 53% | 1030.1 hPa | 0 mm | - | 455 W/m² | - |
| 1777528597 | 5° C | 56% | 1029.8 hPa | 0 mm | - | 377 W/m² | - |
| 1777526797 | 4.44° C | 56% | 1029.4 hPa | 0 mm | - | 239 W/m² | - |
| 1777524997 | 4.44° C | 56% | 1029.1 hPa | 0 mm | - | 112 W/m² | - |
| 1777523197 | 4.44° C | 55% | 1028.7 hPa | 0 mm | - | 0 W/m² | - |
| 1777521397 | 4.44° C | 56% | 1029.1 hPa | 0 mm | - | 0 W/m² | - |
| 1777519597 | 5° C | 55% | 1028.7 hPa | 0 mm | - | 0 W/m² | - |
| 1777517797 | 5° C | 55% | 1029.1 hPa | 0 mm | - | 0 W/m² | - |
| 1777515997 | 5.56° C | 55% | 1028.7 hPa | 0 mm | - | 0 W/m² | - |
| 1777514197 | 6.11° C | 53% | 1028.4 hPa | 0 mm | - | 0 W/m² | - |
| 1777512397 | 6.11° C | 52% | 1028.7 hPa | 0 mm | - | 0 W/m² | - |
| 1777510599 | 6.67° C | 51% | 1028.1 hPa | 0 mm | - | 0 W/m² | - |
| 1777508798 | 7.22° C | 50% | 1028.4 hPa | 0 mm | - | 0 W/m² | - |
| 1777506997 | 7.22° C | 50% | 1028.4 hPa | 0 mm | - | 0 W/m² | - |
| 1777505198 | 7.78° C | 49% | 1028.1 hPa | 0 mm | - | 0 W/m² | - |
| 1777499797 | 8.33° C | 49% | 1027.7 hPa | 0 mm | - | 0 W/m² | - |
| 1777497996 | 8.33° C | 50% | 1027.7 hPa | 0 mm | - | 0 W/m² | - |
| 1777496197 | 8.89° C | 50% | 1027.7 hPa | 0 mm | - | 0 W/m² | - |
| 1777494397 | 8.89° C | 49% | 1027.4 hPa | 0 mm | - | 0 W/m² | - |
| 1777492597 | 9.44° C | 49% | 1027.4 hPa | 0 mm | - | 0 W/m² | - |
* Rain latest hour (hover to see other rain measurements)
** Current wind speed in m/s (hover to see current wind gust speed)